createdAt,value
2017-07-31T00:01:35.927Z,4.10
2017-07-31T00:04:03.668Z,4.25
2017-07-31T00:06:31.210Z,3.50
2017-07-31T00:08:58.716Z,3.22
2017-07-31T00:11:26.260Z,4.13
2017-07-31T00:13:53.812Z,3.60
2017-07-31T00:16:21.376Z,4.63
2017-07-31T00:18:48.915Z,3.53
2017-07-31T00:21:16.428Z,3.85
2017-07-31T00:23:47.962Z,3.90
2017-07-31T00:26:15.508Z,3.85
2017-07-31T00:28:50.899Z,3.43
2017-07-31T00:31:19.167Z,3.92
2017-07-31T00:33:46.935Z,3.60
2017-07-31T00:36:14.491Z,3.20
2017-07-31T00:38:42.791Z,4.15
2017-07-31T00:41:13.763Z,4.37
2017-07-31T00:43:41.727Z,4.40
2017-07-31T00:46:09.232Z,3.92
2017-07-31T00:48:37.568Z,3.58
2017-07-31T00:51:05.139Z,4.03
2017-07-31T00:53:35.857Z,4.30
2017-07-31T00:56:07.301Z,4.55
2017-07-31T00:58:35.071Z,3.73
2017-07-31T01:01:03.153Z,4.75
2017-07-31T01:03:30.681Z,3.65
2017-07-31T01:05:58.208Z,4.30
2017-07-31T01:08:30.125Z,3.42
2017-07-31T01:10:57.627Z,4.28
2017-07-31T01:13:25.219Z,3.95
2017-07-31T01:15:52.734Z,3.75
2017-07-31T01:18:20.322Z,4.05
2017-07-31T01:20:48.022Z,4.25
2017-07-31T01:23:15.556Z,4.07
2017-07-31T01:25:46.900Z,4.15
2017-07-31T01:28:17.484Z,4.37
2017-07-31T01:30:44.987Z,4.28
2017-07-31T01:33:16.788Z,4.72
2017-07-31T01:35:44.424Z,3.87
2017-07-31T01:38:11.979Z,4.53
2017-07-31T01:40:43.951Z,3.95
2017-07-31T01:43:11.723Z,4.87
2017-07-31T01:45:39.456Z,4.15
2017-07-31T01:48:06.963Z,4.18
2017-07-31T01:50:34.522Z,4.28
2017-07-31T01:53:02.463Z,4.50
2017-07-31T01:55:29.977Z,4.60
2017-07-31T01:57:57.539Z,4.95
2017-07-31T02:00:25.171Z,4.68
2017-07-31T02:02:52.683Z,4.65
2017-07-31T02:05:20.225Z,5.20
2017-07-31T02:07:47.771Z,5.18
2017-07-31T02:10:18.378Z,5.45
2017-07-31T02:12:46.121Z,5.20
2017-07-31T02:15:13.681Z,5.37
2017-07-31T02:17:41.591Z,4.55
2017-07-31T02:20:09.111Z,7.05
2017-07-31T02:22:36.656Z,5.18
2017-07-31T02:25:04.162Z,4.47
2017-07-31T02:27:35.476Z,4.73
2017-07-31T02:30:03.020Z,5.00
2017-07-31T02:32:30.684Z,4.53
2017-07-31T02:34:58.264Z,5.68
2017-07-31T02:37:25.861Z,4.78
2017-07-31T02:39:53.672Z,5.43
2017-07-31T02:42:24.514Z,4.85
2017-07-31T02:44:52.043Z,5.40
2017-07-31T02:47:20.323Z,5.63
2017-07-31T02:49:48.143Z,5.32
2017-07-31T02:52:15.878Z,7.40
2017-07-31T02:54:43.396Z,5.00
2017-07-31T02:57:11.686Z,5.30
2017-07-31T02:59:43.776Z,5.47
2017-07-31T03:02:11.809Z,4.45
2017-07-31T03:04:39.357Z,5.47
2017-07-31T03:07:07.677Z,5.37
2017-07-31T03:09:35.251Z,5.47
2017-07-31T03:12:02.779Z,6.80
2017-07-31T03:14:30.336Z,5.75
2017-07-31T03:16:57.850Z,7.12
2017-07-31T03:19:25.355Z,5.05
2017-07-31T03:21:53.035Z,4.65
2017-07-31T03:24:20.758Z,5.80
2017-07-31T03:26:52.887Z,5.60
2017-07-31T03:29:20.405Z,5.62
2017-07-31T03:31:51.451Z,4.80
2017-07-31T03:34:18.983Z,4.85
2017-07-31T03:36:47.340Z,4.53
2017-07-31T03:39:15.065Z,4.20
2017-07-31T03:41:42.567Z,4.55
2017-07-31T03:44:10.177Z,5.07
2017-07-31T03:46:37.707Z,4.72
2017-07-31T03:49:05.227Z,4.55
2017-07-31T03:51:32.921Z,4.40
2017-07-31T03:54:00.840Z,5.15
2017-07-31T03:56:28.349Z,4.57
2017-07-31T03:58:55.903Z,4.60
2017-07-31T04:01:23.457Z,4.65
2017-07-31T04:03:51.007Z,4.40
2017-07-31T04:06:18.991Z,4.18
2017-07-31T04:08:47.306Z,4.95
2017-07-31T04:11:15.025Z,4.22
2017-07-31T04:13:45.659Z,4.60
2017-07-31T04:16:14.007Z,3.90
2017-07-31T04:18:41.579Z,3.80
2017-07-31T04:21:09.168Z,4.10
2017-07-31T04:23:36.957Z,4.87
2017-07-31T04:26:04.678Z,3.37
2017-07-31T04:28:39.420Z,4.07
2017-07-31T04:31:07.291Z,3.45
2017-07-31T04:33:35.796Z,4.62
2017-07-31T04:36:03.347Z,4.18
2017-07-31T04:38:30.853Z,3.43
2017-07-31T04:40:58.430Z,3.70
2017-07-31T04:43:29.166Z,3.83
2017-07-31T04:45:56.687Z,2.90
2017-07-31T04:48:24.262Z,3.57
2017-07-31T04:50:51.824Z,3.50
2017-07-31T04:53:19.339Z,4.30
2017-07-31T04:55:46.843Z,2.93
2017-07-31T04:58:24.327Z,3.20
2017-07-31T05:00:51.873Z,3.87
2017-07-31T05:03:19.379Z,2.97
2017-07-31T05:05:47.017Z,3.27
2017-07-31T05:08:14.565Z,2.87
2017-07-31T05:10:42.084Z,3.40
2017-07-31T05:13:14.076Z,3.03
2017-07-31T05:15:41.799Z,2.50
2017-07-31T05:18:09.594Z,3.17
2017-07-31T05:20:37.442Z,3.73
2017-07-31T05:23:05.120Z,4.10
2017-07-31T05:25:32.607Z,3.50
2017-07-31T05:28:00.403Z,2.87
2017-07-31T05:30:27.948Z,2.77
2017-07-31T05:32:55.459Z,4.80
2017-07-31T05:35:23.030Z,3.30
2017-07-31T05:37:51.031Z,3.37
2017-07-31T05:40:18.535Z,3.63
2017-07-31T05:42:49.112Z,2.67
2017-07-31T05:45:17.106Z,3.30
2017-07-31T05:47:44.613Z,3.53
2017-07-31T05:50:12.323Z,3.97
2017-07-31T05:52:39.869Z,3.50
2017-07-31T05:55:07.458Z,2.70
2017-07-31T05:57:35.023Z,3.43
2017-07-31T06:00:02.871Z,2.60
2017-07-31T06:02:30.367Z,3.07
2017-07-31T06:04:57.932Z,4.20
2017-07-31T06:07:25.450Z,3.30
2017-07-31T06:09:52.947Z,4.77
2017-07-31T06:12:20.488Z,3.13
2017-07-31T06:14:48.900Z,3.87
2017-07-31T06:17:16.443Z,3.83
2017-07-31T06:19:43.975Z,3.83
2017-07-31T06:22:11.482Z,3.87
2017-07-31T06:24:39.080Z,3.60
2017-07-31T06:27:06.734Z,3.70
2017-07-31T06:29:34.267Z,3.43
2017-07-31T06:32:12.483Z,4.23
2017-07-31T06:34:40.035Z,3.37
2017-07-31T06:37:07.588Z,3.40
2017-07-31T06:39:35.342Z,3.30
2017-07-31T06:42:03.373Z,3.57
2017-07-31T06:44:30.896Z,2.80
2017-07-31T06:46:59.000Z,3.17
2017-07-31T06:49:27.327Z,2.80
2017-07-31T06:51:54.848Z,3.90
2017-07-31T06:54:23.168Z,2.87
2017-07-31T06:56:51.187Z,3.50
2017-07-31T06:59:18.712Z,3.93
2017-07-31T07:01:46.279Z,3.27
2017-07-31T07:04:14.320Z,3.30
2017-07-31T07:06:41.824Z,3.30
2017-07-31T07:09:09.360Z,2.70
2017-07-31T07:11:36.904Z,2.93
2017-07-31T07:14:04.695Z,3.43
2017-07-31T07:16:32.408Z,3.00
2017-07-31T07:19:02.967Z,4.33
2017-07-31T07:21:38.234Z,3.43
2017-07-31T07:24:09.639Z,4.30
2017-07-31T07:26:37.215Z,3.73
2017-07-31T07:29:05.648Z,3.53
2017-07-31T07:31:37.750Z,3.13
2017-07-31T07:34:05.495Z,3.43
2017-07-31T07:36:33.011Z,3.83
2017-07-31T07:39:00.541Z,4.23
2017-07-31T07:41:28.085Z,3.50
2017-07-31T07:43:55.920Z,3.90
2017-07-31T07:46:23.428Z,3.90
2017-07-31T07:48:55.169Z,3.30
2017-07-31T07:51:26.484Z,4.00
2017-07-31T07:53:54.048Z,3.20
2017-07-31T07:56:21.579Z,3.10
2017-07-31T07:58:49.094Z,4.10
2017-07-31T08:01:20.759Z,4.20
2017-07-31T08:03:48.617Z,6.73
2017-07-31T08:06:16.264Z,3.57
2017-07-31T08:08:43.779Z,3.60
2017-07-31T08:11:11.337Z,3.63
2017-07-31T08:13:38.873Z,3.40
2017-07-31T08:16:06.515Z,4.10
2017-07-31T08:18:34.171Z,3.30
2017-07-31T08:21:01.939Z,4.10
2017-07-31T08:23:29.489Z,3.30
2017-07-31T08:25:57.107Z,2.70
2017-07-31T08:28:24.643Z,3.57
2017-07-31T08:30:56.711Z,5.90
2017-07-31T08:33:27.551Z,3.60
2017-07-31T08:35:59.660Z,3.83
2017-07-31T08:38:27.336Z,3.87
2017-07-31T08:40:54.840Z,3.77
2017-07-31T08:43:23.161Z,3.93
2017-07-31T08:45:50.676Z,3.43
2017-07-31T08:48:22.712Z,3.23
2017-07-31T08:50:50.213Z,4.30
2017-07-31T08:53:18.539Z,3.33
2017-07-31T08:55:46.104Z,3.30
2017-07-31T08:58:13.648Z,2.90
2017-07-31T09:00:42.164Z,3.30
2017-07-31T09:03:09.668Z,3.70
2017-07-31T09:05:40.175Z,3.50
2017-07-31T09:08:07.674Z,3.60
2017-07-31T09:10:35.260Z,4.00
2017-07-31T09:13:02.813Z,2.57
2017-07-31T09:15:30.308Z,4.30
2017-07-31T09:17:57.822Z,3.53
2017-07-31T09:20:29.179Z,4.40
2017-07-31T09:22:57.185Z,3.47
2017-07-31T09:25:24.735Z,3.67
2017-07-31T09:27:52.513Z,2.93
2017-07-31T09:30:20.800Z,3.40
2017-07-31T09:32:48.338Z,3.70
2017-07-31T09:35:16.641Z,2.60
2017-07-31T09:37:44.468Z,4.13
2017-07-31T09:40:12.054Z,3.90
2017-07-31T09:42:39.564Z,3.63
2017-07-31T09:45:07.127Z,3.97
2017-07-31T09:47:41.586Z,3.57
2017-07-31T09:50:12.160Z,3.20
2017-07-31T09:52:39.684Z,4.03
2017-07-31T09:55:07.952Z,4.60
2017-07-31T09:57:35.501Z,4.10
2017-07-31T10:00:03.010Z,4.50
2017-07-31T10:02:38.027Z,5.07
2017-07-31T10:05:05.539Z,4.23
2017-07-31T10:07:33.071Z,3.53
2017-07-31T10:10:01.011Z,4.00
2017-07-31T10:12:28.516Z,4.13
2017-07-31T10:14:56.127Z,3.80
2017-07-31T10:17:23.657Z,4.40
2017-07-31T10:19:51.158Z,4.37
2017-07-31T10:22:22.760Z,4.23
2017-07-31T10:24:50.700Z,4.17
2017-07-31T10:27:18.211Z,4.57
2017-07-31T10:29:46.531Z,3.97
2017-07-31T10:32:14.111Z,5.17
2017-07-31T10:34:41.695Z,3.50
2017-07-31T10:37:20.567Z,4.17
2017-07-31T10:39:48.126Z,4.47
2017-07-31T10:42:16.596Z,3.97
2017-07-31T10:44:44.120Z,4.00
2017-07-31T10:47:11.616Z,4.40
2017-07-31T10:49:43.404Z,4.47
2017-07-31T10:52:10.899Z,4.13
2017-07-31T10:54:41.702Z,3.77
2017-07-31T10:57:09.221Z,3.53
2017-07-31T10:59:36.712Z,4.10
2017-07-31T11:02:04.382Z,3.20
2017-07-31T11:04:31.878Z,3.33
2017-07-31T11:07:00.240Z,4.23
2017-07-31T11:09:31.646Z,4.57
2017-07-31T11:11:59.520Z,4.77
2017-07-31T11:14:27.178Z,3.40
2017-07-31T11:16:54.704Z,3.60
2017-07-31T11:19:22.977Z,4.00
2017-07-31T11:21:55.380Z,3.80
2017-07-31T11:24:23.091Z,4.20
2017-07-31T11:26:50.580Z,5.13
2017-07-31T11:29:18.115Z,3.67
2017-07-31T11:31:45.608Z,3.80
2017-07-31T11:34:24.387Z,3.67
2017-07-31T11:36:55.107Z,3.10
2017-07-31T11:39:22.747Z,4.53
2017-07-31T11:41:50.243Z,4.27
2017-07-31T11:44:18.202Z,3.63
2017-07-31T11:46:45.894Z,3.63
2017-07-31T11:49:13.390Z,3.23
2017-07-31T11:51:43.983Z,3.00
2017-07-31T11:54:12.243Z,3.53
2017-07-31T11:56:44.360Z,3.77
2017-07-31T11:59:12.123Z,3.30
2017-07-31T12:01:39.832Z,3.80
2017-07-31T12:04:15.948Z,3.53
2017-07-31T12:06:43.453Z,4.10
2017-07-31T12:09:15.487Z,3.67
2017-07-31T12:11:43.339Z,3.47
2017-07-31T12:14:10.943Z,3.80
2017-07-31T12:16:38.453Z,3.00
2017-07-31T12:19:06.006Z,3.57
2017-07-31T12:21:37.419Z,3.60
2017-07-31T12:24:08.800Z,3.80
2017-07-31T12:26:41.126Z,4.50
2017-07-31T12:29:08.746Z,3.90
2017-07-31T12:31:36.403Z,3.40
2017-07-31T12:34:04.160Z,3.20
2017-07-31T12:36:35.312Z,4.17
2017-07-31T12:39:05.627Z,3.77
2017-07-31T12:41:33.133Z,4.13
2017-07-31T12:44:00.655Z,3.80
2017-07-31T12:46:28.200Z,4.20
2017-07-31T12:48:55.703Z,4.03
2017-07-31T12:51:26.855Z,3.60
2017-07-31T12:53:58.209Z,3.40
2017-07-31T12:56:25.723Z,3.00
2017-07-31T12:58:56.623Z,3.70
2017-07-31T13:01:24.891Z,4.23
2017-07-31T13:03:52.394Z,4.23
2017-07-31T13:06:22.931Z,3.83
2017-07-31T13:08:54.911Z,3.23
2017-07-31T13:11:22.688Z,2.90
2017-07-31T13:13:50.188Z,3.47
2017-07-31T13:16:17.715Z,4.10
2017-07-31T13:18:45.222Z,4.33
2017-07-31T13:21:12.719Z,3.50
2017-07-31T13:23:47.716Z,6.27
2017-07-31T13:26:15.270Z,3.80
2017-07-31T13:28:42.811Z,3.47
2017-07-31T13:31:13.945Z,3.57
2017-07-31T13:33:41.447Z,5.00
2017-07-31T13:36:12.066Z,4.13
2017-07-31T13:38:39.565Z,3.40
2017-07-31T13:41:11.387Z,3.50
2017-07-31T13:43:39.092Z,4.07
2017-07-31T13:46:06.800Z,3.73
2017-07-31T13:48:34.564Z,4.60
2017-07-31T13:51:02.063Z,4.00
2017-07-31T13:53:29.555Z,3.40
2017-07-31T13:56:02.168Z,3.50
2017-07-31T13:58:29.820Z,3.50
2017-07-31T14:00:57.320Z,3.40
2017-07-31T14:03:24.815Z,4.17
2017-07-31T14:05:56.603Z,3.70
2017-07-31T14:08:24.244Z,3.27
2017-07-31T14:10:51.743Z,3.70
2017-07-31T14:13:19.282Z,4.27
2017-07-31T14:15:47.047Z,3.90
2017-07-31T14:18:14.613Z,3.70
2017-07-31T14:20:42.254Z,3.40
2017-07-31T14:23:10.028Z,3.30
2017-07-31T14:25:37.597Z,3.73
2017-07-31T14:28:05.128Z,3.97
2017-07-31T14:30:32.959Z,3.70
2017-07-31T14:33:00.528Z,4.90
2017-07-31T14:35:28.035Z,3.87
2017-07-31T14:37:55.531Z,4.20
2017-07-31T14:40:23.052Z,5.40
2017-07-31T14:42:50.552Z,4.60
2017-07-31T14:45:18.271Z,3.70
2017-07-31T14:47:45.763Z,3.73
2017-07-31T14:50:13.283Z,3.53
2017-07-31T14:52:43.817Z,3.27
2017-07-31T14:55:11.567Z,3.50
2017-07-31T14:57:43.026Z,4.20
2017-07-31T15:00:10.609Z,3.13
2017-07-31T15:02:38.111Z,3.07
2017-07-31T15:05:05.709Z,3.23
2017-07-31T15:07:33.207Z,3.50
2017-07-31T15:10:04.006Z,3.47
2017-07-31T15:12:31.819Z,2.97
2017-07-31T15:15:00.132Z,3.67
2017-07-31T15:17:27.740Z,4.10
2017-07-31T15:19:55.291Z,4.00
2017-07-31T15:22:26.068Z,3.90
2017-07-31T15:24:53.964Z,4.67
2017-07-31T15:27:21.539Z,3.93
2017-07-31T15:29:49.086Z,3.30
2017-07-31T15:32:16.586Z,3.33
2017-07-31T15:34:44.423Z,3.63
2017-07-31T15:37:12.175Z,3.90
2017-07-31T15:39:46.815Z,4.00
2017-07-31T15:42:21.595Z,3.20
2017-07-31T15:44:49.124Z,4.53
2017-07-31T15:47:16.750Z,3.03
2017-07-31T15:49:44.331Z,2.80
2017-07-31T15:52:11.838Z,3.73
2017-07-31T15:54:42.487Z,3.40
2017-07-31T15:57:09.996Z,3.63
2017-07-31T15:59:37.740Z,4.40
2017-07-31T16:02:05.596Z,4.47
2017-07-31T16:04:33.334Z,3.90
2017-07-31T16:07:00.911Z,4.80
2017-07-31T16:09:28.424Z,3.13
2017-07-31T16:11:55.927Z,3.40
2017-07-31T16:14:23.676Z,3.60
2017-07-31T16:16:51.204Z,5.10
2017-07-31T16:19:19.525Z,4.73
2017-07-31T16:21:47.022Z,3.87
2017-07-31T16:24:17.501Z,2.67
2017-07-31T16:26:45.003Z,3.90
2017-07-31T16:29:12.491Z,3.20
2017-07-31T16:31:43.752Z,5.07
2017-07-31T16:34:11.255Z,3.30
2017-07-31T16:36:43.087Z,4.17
2017-07-31T16:39:21.046Z,2.70
2017-07-31T16:42:08.155Z,3.67
2017-07-31T16:45:00.495Z,4.87
2017-07-31T16:47:40.387Z,3.20
2017-07-31T16:50:08.249Z,4.27
2017-07-31T16:52:35.939Z,3.33
2017-07-31T16:55:11.359Z,3.30
2017-07-31T16:57:38.896Z,3.47
2017-07-31T17:00:06.402Z,3.63
2017-07-31T17:02:33.932Z,3.27
2017-07-31T17:05:01.493Z,2.97
2017-07-31T17:07:29.370Z,3.60
2017-07-31T17:09:56.873Z,3.20
2017-07-31T17:12:24.375Z,3.77
2017-07-31T17:14:52.156Z,2.93
2017-07-31T17:17:19.704Z,3.20
2017-07-31T17:19:47.560Z,3.73
2017-07-31T17:22:15.104Z,3.30
2017-07-31T17:24:43.851Z,3.83
2017-07-31T17:27:11.478Z,2.90
2017-07-31T17:29:39.184Z,3.30
2017-07-31T17:32:06.699Z,3.03
2017-07-31T17:34:34.272Z,3.70
2017-07-31T17:37:02.395Z,3.53
2017-07-31T17:39:40.395Z,3.27
2017-07-31T17:42:07.911Z,3.40
2017-07-31T17:44:36.591Z,2.50
2017-07-31T17:47:04.090Z,3.50
2017-07-31T17:49:31.618Z,3.20
2017-07-31T17:51:59.421Z,3.73
2017-07-31T17:54:27.031Z,2.80
2017-07-31T17:56:54.825Z,2.90
2017-07-31T17:59:22.395Z,2.60
2017-07-31T18:03:12.767Z,3.30
2017-07-31T18:05:40.339Z,3.40
2017-07-31T18:08:07.876Z,3.37
2017-07-31T18:10:35.547Z,3.73
2017-07-31T18:13:06.803Z,3.43
2017-07-31T18:15:34.331Z,5.13
2017-07-31T18:18:01.940Z,3.80
2017-07-31T18:20:29.439Z,4.23
2017-07-31T18:22:56.935Z,4.53
2017-07-31T18:25:28.967Z,4.40
2017-07-31T18:27:56.724Z,3.53
2017-07-31T18:30:24.549Z,4.60
2017-07-31T18:32:52.128Z,3.90
2017-07-31T18:35:19.645Z,3.63
2017-07-31T18:37:47.155Z,4.60
2017-07-31T18:40:14.700Z,3.90
2017-07-31T18:42:42.959Z,3.40
2017-07-31T18:45:10.524Z,4.00
2017-07-31T18:47:42.021Z,3.50
2017-07-31T18:50:09.608Z,3.60
2017-07-31T18:52:37.124Z,4.17
2017-07-31T18:55:04.636Z,3.53
2017-07-31T18:57:32.208Z,3.73
2017-07-31T18:59:59.726Z,4.03
2017-07-31T19:02:28.820Z,3.67
2017-07-31T19:04:56.323Z,3.87
2017-07-31T19:07:24.032Z,3.70
2017-07-31T19:09:51.581Z,3.43
2017-07-31T19:12:22.963Z,4.43
2017-07-31T19:14:53.475Z,4.40
2017-07-31T19:17:21.192Z,5.03
2017-07-31T19:19:48.719Z,4.50
2017-07-31T19:22:16.251Z,3.50
2017-07-31T19:24:44.832Z,4.13
2017-07-31T19:27:12.347Z,3.43
2017-07-31T19:29:40.382Z,2.90
2017-07-31T19:32:08.009Z,3.43
2017-07-31T19:34:35.863Z,5.00
2017-07-31T19:37:03.654Z,4.90
2017-07-31T19:39:31.228Z,3.53
2017-07-31T19:42:02.656Z,3.43
2017-07-31T19:44:30.151Z,3.97
2017-07-31T19:46:57.724Z,3.43
2017-07-31T19:49:25.223Z,4.07
2017-07-31T19:51:52.923Z,4.50
2017-07-31T19:54:20.460Z,4.67
2017-07-31T19:56:48.231Z,4.10
2017-07-31T19:59:19.425Z,4.97
2017-07-31T20:01:46.937Z,4.10
2017-07-31T20:04:14.504Z,4.13
2017-07-31T20:06:42.163Z,5.00
2017-07-31T20:09:09.679Z,4.40
2017-07-31T20:11:37.178Z,4.37
2017-07-31T20:14:09.143Z,4.37
2017-07-31T20:16:36.639Z,4.50
2017-07-31T20:19:04.194Z,4.47
2017-07-31T20:21:36.018Z,3.60
2017-07-31T20:24:03.519Z,4.80
2017-07-31T20:26:31.084Z,4.50
2017-07-31T20:28:58.593Z,3.90
2017-07-31T20:31:26.152Z,3.97
2017-07-31T20:33:57.000Z,3.67
2017-07-31T20:36:24.513Z,3.83
2017-07-31T20:38:56.923Z,3.83
2017-07-31T20:41:24.447Z,3.90
2017-07-31T20:43:51.948Z,4.50
2017-07-31T20:46:23.555Z,5.00
2017-07-31T20:48:51.815Z,4.23
2017-07-31T20:51:19.336Z,3.90
2017-07-31T20:53:46.913Z,3.67
2017-07-31T20:56:14.419Z,4.40
2017-07-31T20:58:45.447Z,4.10
2017-07-31T21:01:13.733Z,4.13
2017-07-31T21:03:41.254Z,4.57
2017-07-31T21:06:08.811Z,4.40
2017-07-31T21:08:36.445Z,4.30
2017-07-31T21:11:03.961Z,5.33
2017-07-31T21:13:35.336Z,5.43
2017-07-31T21:16:03.051Z,5.00
2017-07-31T21:18:30.555Z,4.40
2017-07-31T21:20:58.101Z,5.13
2017-07-31T21:23:25.596Z,5.10
2017-07-31T21:25:53.183Z,5.80
2017-07-31T21:28:25.046Z,5.10
2017-07-31T21:30:56.444Z,6.13
2017-07-31T21:33:27.565Z,6.10
2017-07-31T21:35:55.281Z,5.93
2017-07-31T21:38:22.788Z,4.70
2017-07-31T21:40:50.308Z,4.90
2017-07-31T21:43:17.843Z,4.80
2017-07-31T21:45:45.601Z,4.60
2017-07-31T21:48:13.295Z,5.50
2017-07-31T21:50:40.795Z,6.77
2017-07-31T21:53:08.344Z,4.30
2017-07-31T21:55:36.185Z,5.73
2017-07-31T21:58:04.022Z,5.73
2017-07-31T22:00:32.173Z,6.20
2017-07-31T22:02:59.933Z,5.27
2017-07-31T22:05:27.509Z,4.80
2017-07-31T22:07:55.055Z,5.97
2017-07-31T22:10:22.579Z,5.00
2017-07-31T22:12:51.262Z,4.73
2017-07-31T22:15:18.803Z,5.10
2017-07-31T22:17:52.083Z,5.10
2017-07-31T22:20:25.208Z,5.27
2017-07-31T22:22:52.755Z,4.27
2017-07-31T22:25:20.272Z,4.57
2017-07-31T22:27:47.866Z,5.50
2017-07-31T22:30:18.411Z,5.10
2017-07-31T22:32:46.009Z,4.80
2017-07-31T22:35:13.580Z,5.90
2017-07-31T22:37:41.083Z,5.63
2017-07-31T22:40:08.645Z,5.07
2017-07-31T22:42:36.965Z,5.67
2017-07-31T22:45:04.479Z,5.40
2017-07-31T22:47:35.900Z,5.33
2017-07-31T22:50:03.591Z,5.70
2017-07-31T22:52:31.090Z,6.37
2017-07-31T22:55:02.248Z,7.13
2017-07-31T22:57:29.791Z,5.23
2017-07-31T22:59:57.295Z,5.30
2017-07-31T23:02:28.291Z,4.63
2017-07-31T23:04:55.875Z,6.62
2017-07-31T23:07:23.382Z,6.35
2017-07-31T23:09:50.883Z,6.10
2017-07-31T23:12:18.440Z,5.72
2017-07-31T23:14:45.943Z,5.60
2017-07-31T23:17:14.242Z,5.23
2017-07-31T23:19:45.049Z,4.90
2017-07-31T23:22:12.762Z,4.90
2017-07-31T23:24:40.328Z,6.03
2017-07-31T23:27:07.881Z,5.83
2017-07-31T23:29:35.539Z,6.25
2017-07-31T23:32:06.067Z,7.60
2017-07-31T23:34:33.767Z,6.22
2017-07-31T23:37:01.291Z,6.35
2017-07-31T23:39:28.939Z,6.90
2017-07-31T23:41:56.452Z,7.53
2017-07-31T23:44:23.955Z,8.13
2017-07-31T23:46:55.537Z,7.45
2017-07-31T23:49:23.048Z,6.35
2017-07-31T23:51:50.551Z,7.28
2017-07-31T23:54:18.407Z,7.80
2017-07-31T23:56:46.423Z,6.68
2017-07-31T23:59:13.926Z,7.10
